createdAt,value
2022-08-31T00:01:49.312Z,77.79
2022-08-31T00:04:51.307Z,78.23
2022-08-31T00:07:55.504Z,79.14
2022-08-31T00:10:58.330Z,79.57
2022-08-31T00:14:04.447Z,79.00
2022-08-31T00:17:07.555Z,79.16
2022-08-31T00:20:23.324Z,78.37
2022-08-31T00:23:33.086Z,79.98
2022-08-31T00:26:35.638Z,79.23
2022-08-31T00:29:37.562Z,79.52
2022-08-31T00:32:39.779Z,79.66
2022-08-31T00:35:44.052Z,78.94
2022-08-31T00:38:45.919Z,78.27
2022-08-31T00:41:48.392Z,78.49
2022-08-31T00:44:50.905Z,78.75
2022-08-31T00:47:54.094Z,79.20
2022-08-31T00:50:57.261Z,78.10
2022-08-31T00:53:59.875Z,79.72
2022-08-31T00:57:02.584Z,78.45
2022-08-31T01:00:12.346Z,79.46
2022-08-31T01:03:16.181Z,77.57
2022-08-31T01:06:18.672Z,78.97
2022-08-31T01:09:22.634Z,78.18
2022-08-31T01:12:28.556Z,77.49
2022-08-31T01:15:32.032Z,77.25
2022-08-31T01:18:35.128Z,78.14
2022-08-31T01:21:45.231Z,77.95
2022-08-31T01:24:48.398Z,78.30
2022-08-31T01:27:50.249Z,78.36
2022-08-31T01:31:09.565Z,77.58
2022-08-31T01:34:13.955Z,76.60
2022-08-31T01:37:16.130Z,76.76
2022-08-31T01:40:18.313Z,76.10
2022-08-31T01:43:20.815Z,75.71
2022-08-31T01:46:24.299Z,77.02
2022-08-31T01:49:31.675Z,79.31
2022-08-31T01:52:34.334Z,78.45
2022-08-31T01:55:36.892Z,79.13
2022-08-31T01:58:38.866Z,80.33
2022-08-31T02:02:09.955Z,80.67
2022-08-31T02:05:12.375Z,82.60
2022-08-31T02:08:14.414Z,82.10
2022-08-31T02:11:16.425Z,83.10
2022-08-31T02:14:18.928Z,83.23
2022-08-31T02:17:20.843Z,84.27
2022-08-31T02:20:22.767Z,84.16
2022-08-31T02:23:25.708Z,85.57
2022-08-31T02:26:27.918Z,84.95
2022-08-31T02:29:30.120Z,84.71
2022-08-31T02:32:32.337Z,84.59
2022-08-31T02:35:35.151Z,84.05
2022-08-31T02:38:37.915Z,84.98
2022-08-31T02:41:40.383Z,84.85
2022-08-31T02:44:42.566Z,85.78
2022-08-31T02:47:44.581Z,83.50
2022-08-31T02:51:08.792Z,85.43
2022-08-31T02:54:11.921Z,84.92
2022-08-31T02:57:14.060Z,84.27
2022-08-31T03:00:16.270Z,84.92
2022-08-31T03:03:19.214Z,85.89
2022-08-31T03:06:23.114Z,86.62
2022-08-31T03:09:25.064Z,86.22
2022-08-31T03:12:27.202Z,86.77
2022-08-31T03:15:31.198Z,86.69
2022-08-31T03:18:36.994Z,86.97
2022-08-31T03:21:38.769Z,88.15
2022-08-31T03:24:42.133Z,88.72
2022-08-31T03:27:45.889Z,89.41
2022-08-31T03:30:50.915Z,89.96
2022-08-31T03:33:57.884Z,90.35
2022-08-31T03:37:00.522Z,90.52
2022-08-31T03:40:04.667Z,90.90
2022-08-31T03:43:16.386Z,90.38
2022-08-31T03:46:19.641Z,90.61
2022-08-31T03:49:22.682Z,89.53
2022-08-31T03:52:47.970Z,90.24
2022-08-31T03:56:01.198Z,89.70
2022-08-31T03:59:07.103Z,90.17
2022-08-31T04:02:31.951Z,89.71
2022-08-31T04:05:55.617Z,90.27
2022-08-31T04:09:17.061Z,89.58
2022-08-31T04:12:42.445Z,89.46
2022-08-31T04:16:01.071Z,88.63
2022-08-31T04:19:41.341Z,88.54
2022-08-31T04:23:11.358Z,89.09
2022-08-31T04:26:24.199Z,86.08
2022-08-31T04:29:26.751Z,88.46
2022-08-31T04:32:29.089Z,88.93
2022-08-31T04:35:31.964Z,88.21
2022-08-31T04:38:35.208Z,87.78
2022-08-31T04:41:40.209Z,87.95
2022-08-31T04:44:46.338Z,82.79
2022-08-31T04:47:49.225Z,80.98
2022-08-31T04:50:51.467Z,81.26
2022-08-31T04:53:54.192Z,81.09
2022-08-31T04:56:56.218Z,81.58
2022-08-31T05:00:06.332Z,81.73
2022-08-31T05:03:27.266Z,81.55
2022-08-31T05:06:33.127Z,80.54
2022-08-31T05:09:38.384Z,79.37
2022-08-31T05:12:40.331Z,80.06
2022-08-31T05:15:44.174Z,79.86
2022-08-31T05:18:51.507Z,80.47
2022-08-31T05:21:55.102Z,79.87
2022-08-31T05:24:59.062Z,79.29
2022-08-31T05:28:01.290Z,80.03
2022-08-31T05:31:04.020Z,79.02
2022-08-31T05:34:15.406Z,79.51
2022-08-31T05:37:18.781Z,77.93
2022-08-31T05:40:21.390Z,78.44
2022-08-31T05:43:23.637Z,77.58
2022-08-31T05:46:26.051Z,77.78
2022-08-31T05:49:28.808Z,77.55
2022-08-31T05:52:31.161Z,77.43
2022-08-31T05:55:34.102Z,76.51
2022-08-31T05:58:37.933Z,76.02
2022-08-31T06:01:41.616Z,75.21
2022-08-31T06:04:57.929Z,74.88
2022-08-31T06:08:00.930Z,74.08
2022-08-31T06:11:04.534Z,73.65
2022-08-31T06:14:07.281Z,73.72
2022-08-31T06:17:09.543Z,72.57
2022-08-31T06:20:17.047Z,71.09
2022-08-31T06:23:21.200Z,69.77
2022-08-31T06:26:27.061Z,70.57
2022-08-31T06:29:35.533Z,70.04
2022-08-31T06:32:37.859Z,69.42
2022-08-31T06:35:41.586Z,69.25
2022-08-31T06:39:02.852Z,69.36
2022-08-31T06:42:25.375Z,70.02
2022-08-31T06:45:27.488Z,68.48
2022-08-31T06:48:37.167Z,69.50
2022-08-31T06:51:39.479Z,69.54
2022-08-31T06:54:42.025Z,67.34
2022-08-31T06:58:04.395Z,67.69
2022-08-31T07:01:35.201Z,67.84
2022-08-31T07:05:01.493Z,67.43
2022-08-31T07:08:04.418Z,65.92
2022-08-31T07:11:15.859Z,66.12
2022-08-31T07:14:24.514Z,63.58
2022-08-31T07:17:28.337Z,62.94
2022-08-31T07:20:30.955Z,62.09
2022-08-31T07:23:34.845Z,62.32
2022-08-31T07:26:48.844Z,62.77
2022-08-31T07:29:57.915Z,62.91
2022-08-31T07:33:01.154Z,63.17
2022-08-31T07:36:03.910Z,63.29
2022-08-31T07:39:35.640Z,61.15
2022-08-31T07:42:41.701Z,62.25
2022-08-31T07:45:44.417Z,61.70
2022-08-31T07:48:50.859Z,61.46
2022-08-31T07:52:13.018Z,62.33
2022-08-31T07:55:36.569Z,62.00
2022-08-31T07:58:43.959Z,61.15
2022-08-31T08:01:48.822Z,61.30
2022-08-31T08:04:54.220Z,60.18
2022-08-31T08:08:26.198Z,60.03
2022-08-31T08:11:39.736Z,59.95
2022-08-31T08:15:06.377Z,60.45
2022-08-31T08:18:35.962Z,59.85
2022-08-31T08:21:38.617Z,58.29
2022-08-31T08:24:42.600Z,56.85
2022-08-31T08:28:22.825Z,55.71
2022-08-31T08:31:29.235Z,54.01
2022-08-31T08:34:32.872Z,57.34
2022-08-31T08:37:57.922Z,56.38
2022-08-31T08:41:06.918Z,53.24
2022-08-31T08:44:17.811Z,52.77
2022-08-31T08:47:25.031Z,50.62
2022-08-31T08:50:36.765Z,52.54
2022-08-31T08:53:42.336Z,52.69
2022-08-31T08:57:01.645Z,53.40
2022-08-31T09:00:25.549Z,49.46
2022-08-31T09:03:45.650Z,48.73
2022-08-31T09:07:05.325Z,48.60
2022-08-31T09:10:23.921Z,49.36
2022-08-31T09:13:49.542Z,50.58
2022-08-31T09:16:52.267Z,50.48
2022-08-31T09:20:00.638Z,51.17
2022-08-31T09:23:08.828Z,49.60
2022-08-31T09:26:17.128Z,48.41
2022-08-31T09:29:45.661Z,47.48
2022-08-31T09:32:57.928Z,43.57
2022-08-31T09:36:20.264Z,47.31
2022-08-31T09:39:32.843Z,45.14
2022-08-31T09:42:39.224Z,48.34
2022-08-31T09:45:54.339Z,43.47
2022-08-31T09:48:58.868Z,48.24
2022-08-31T09:52:19.178Z,45.36
2022-08-31T09:55:26.036Z,46.15
2022-08-31T09:58:31.700Z,44.48
2022-08-31T10:01:43.499Z,44.02
2022-08-31T10:04:48.403Z,45.56
2022-08-31T10:07:58.668Z,44.55
2022-08-31T10:11:27.719Z,42.96
2022-08-31T10:15:02.804Z,44.66
2022-08-31T10:18:56.379Z,44.58
2022-08-31T10:22:31.313Z,41.09
2022-08-31T10:25:43.443Z,42.85
2022-08-31T10:28:52.945Z,43.24
2022-08-31T10:31:58.478Z,42.55
2022-08-31T10:35:10.724Z,40.81
2022-08-31T10:38:24.254Z,42.97
2022-08-31T10:41:31.303Z,42.59
2022-08-31T10:44:39.851Z,43.25
2022-08-31T10:47:47.277Z,43.41
2022-08-31T10:51:06.761Z,43.64
2022-08-31T10:54:41.014Z,45.37
2022-08-31T10:57:51.806Z,41.45
2022-08-31T11:01:01.280Z,40.16
2022-08-31T11:04:22.396Z,39.62
2022-08-31T11:07:45.856Z,39.32
2022-08-31T11:10:48.094Z,43.95
2022-08-31T11:14:24.539Z,43.00
2022-08-31T11:17:51.252Z,43.26
2022-08-31T11:21:08.223Z,44.15
2022-08-31T11:24:49.319Z,42.39
2022-08-31T11:28:34.367Z,42.33
2022-08-31T11:31:39.547Z,44.11
2022-08-31T11:34:51.816Z,44.76
2022-08-31T11:37:56.226Z,43.26
2022-08-31T11:41:05.235Z,43.49
2022-08-31T11:44:09.641Z,44.09
2022-08-31T11:47:30.358Z,44.16
2022-08-31T11:50:54.844Z,42.69
2022-08-31T11:53:56.921Z,43.79
2022-08-31T11:56:59.820Z,44.43
2022-08-31T12:00:02.443Z,44.41
2022-08-31T12:03:09.846Z,43.81
2022-08-31T12:06:37.656Z,45.05
2022-08-31T12:09:52.319Z,44.80
2022-08-31T12:12:55.381Z,44.74
2022-08-31T12:16:05.779Z,45.07
2022-08-31T12:19:45.763Z,45.61
2022-08-31T12:23:07.045Z,44.67
2022-08-31T12:26:45.161Z,45.90
2022-08-31T12:29:48.197Z,46.13
2022-08-31T12:33:05.932Z,46.45
2022-08-31T12:36:15.342Z,45.01
2022-08-31T12:39:23.995Z,45.20
2022-08-31T12:42:28.809Z,45.24
2022-08-31T12:45:59.686Z,46.62
2022-08-31T12:49:21.863Z,44.88
2022-08-31T12:52:42.988Z,44.10
2022-08-31T12:56:07.445Z,44.82
2022-08-31T12:59:59.802Z,44.56
2022-08-31T13:03:23.816Z,44.15
2022-08-31T13:06:35.295Z,46.15
2022-08-31T13:09:37.314Z,45.61
2022-08-31T13:12:40.052Z,45.23
2022-08-31T13:15:44.137Z,45.14
2022-08-31T13:18:46.797Z,44.81
2022-08-31T13:21:55.146Z,43.86
2022-08-31T13:25:10.943Z,43.79
2022-08-31T13:28:14.334Z,44.67
2022-08-31T13:31:24.265Z,41.98
2022-08-31T13:34:27.102Z,43.30
2022-08-31T13:37:32.990Z,41.51
2022-08-31T13:40:40.681Z,41.26
2022-08-31T13:43:54.110Z,41.30
2022-08-31T13:47:03.196Z,42.46
2022-08-31T13:50:13.327Z,40.91
2022-08-31T13:53:39.975Z,41.69
2022-08-31T13:56:55.045Z,43.37
2022-08-31T14:00:28.188Z,41.47
2022-08-31T14:03:46.641Z,42.07
2022-08-31T14:06:50.921Z,43.09
2022-08-31T14:10:19.484Z,42.15
2022-08-31T14:13:25.303Z,45.54
2022-08-31T14:16:32.799Z,45.90
2022-08-31T14:19:42.511Z,46.11
2022-08-31T14:22:47.093Z,46.59
2022-08-31T14:25:50.789Z,46.61
2022-08-31T14:28:55.706Z,46.51
2022-08-31T14:32:00.116Z,45.88
2022-08-31T14:35:02.831Z,47.20
2022-08-31T14:38:05.567Z,47.11
2022-08-31T14:41:12.454Z,47.34
2022-08-31T14:44:18.669Z,48.13
2022-08-31T14:47:24.502Z,48.38
2022-08-31T14:50:27.459Z,47.06
2022-08-31T14:53:37.439Z,47.38
2022-08-31T14:56:46.043Z,47.54
2022-08-31T14:59:52.347Z,46.39
2022-08-31T15:02:55.185Z,46.18
2022-08-31T15:06:03.566Z,46.86
2022-08-31T15:09:08.536Z,47.86
2022-08-31T15:12:14.711Z,47.19
2022-08-31T15:15:22.216Z,46.28
2022-08-31T15:18:27.416Z,46.68
2022-08-31T15:21:32.441Z,45.72
2022-08-31T15:24:37.469Z,46.66
2022-08-31T15:27:44.482Z,45.88
2022-08-31T15:30:47.355Z,47.45
2022-08-31T15:33:51.834Z,46.90
2022-08-31T15:36:56.857Z,47.28
2022-08-31T15:43:02.452Z,47.43
2022-08-31T15:46:04.713Z,47.95
2022-08-31T15:49:10.070Z,47.00
2022-08-31T15:52:12.922Z,47.63
2022-08-31T15:55:18.135Z,48.55
2022-08-31T15:58:25.293Z,48.58
2022-08-31T16:01:28.295Z,48.64
2022-08-31T16:04:33.507Z,48.76
2022-08-31T16:07:36.440Z,48.92
2022-08-31T16:10:44.892Z,49.22
2022-08-31T16:13:52.172Z,49.56
2022-08-31T16:16:54.285Z,49.48
2022-08-31T16:19:56.528Z,49.80
2022-08-31T16:22:59.385Z,49.67
2022-08-31T16:26:05.654Z,50.48
2022-08-31T16:29:15.203Z,50.56
2022-08-31T16:32:18.125Z,51.09
2022-08-31T16:35:20.906Z,51.54
2022-08-31T16:38:26.336Z,52.06
2022-08-31T16:41:30.563Z,52.79
2022-08-31T16:44:36.579Z,52.88
2022-08-31T16:47:40.871Z,52.71
2022-08-31T16:50:53.728Z,53.18
2022-08-31T16:53:59.662Z,53.07
2022-08-31T16:57:03.806Z,53.14
2022-08-31T17:00:06.989Z,53.02
2022-08-31T17:03:10.047Z,53.80
2022-08-31T17:06:13.913Z,53.88
2022-08-31T17:09:23.634Z,55.42
2022-08-31T17:12:29.123Z,54.56
2022-08-31T17:15:32.368Z,55.62
2022-08-31T17:18:35.438Z,56.08
2022-08-31T17:21:51.339Z,55.98
2022-08-31T17:24:56.480Z,56.92
2022-08-31T17:28:04.472Z,57.58
2022-08-31T17:31:10.723Z,57.75
2022-08-31T17:34:18.051Z,57.74
2022-08-31T17:37:24.258Z,57.32
2022-08-31T17:40:27.360Z,57.91
2022-08-31T17:43:30.215Z,58.09
2022-08-31T17:46:33.430Z,58.44
2022-08-31T17:49:37.850Z,58.46
2022-08-31T17:52:40.705Z,58.72
2022-08-31T17:55:42.992Z,58.31
2022-08-31T17:58:45.298Z,59.00
2022-08-31T18:01:50.380Z,59.54
2022-08-31T18:04:53.029Z,59.23
2022-08-31T18:07:55.656Z,59.87
2022-08-31T18:10:57.919Z,60.45
2022-08-31T18:14:00.350Z,61.25
2022-08-31T18:17:04.204Z,61.55
2022-08-31T18:20:06.808Z,60.44
2022-08-31T18:23:10.232Z,60.78
2022-08-31T18:26:15.643Z,61.42
2022-08-31T18:29:22.615Z,61.38
2022-08-31T18:32:29.410Z,60.90
2022-08-31T18:35:31.454Z,61.92
2022-08-31T18:38:35.117Z,60.78
2022-08-31T18:41:56.509Z,61.60
2022-08-31T18:45:19.439Z,60.62
2022-08-31T18:48:26.433Z,61.19
2022-08-31T18:51:29.735Z,60.96
2022-08-31T18:54:33.583Z,59.98
2022-08-31T18:57:48.431Z,60.34
2022-08-31T19:00:57.737Z,60.90
2022-08-31T19:04:02.157Z,60.02
2022-08-31T19:07:05.850Z,59.75
2022-08-31T19:10:13.297Z,59.48
2022-08-31T19:13:16.771Z,59.49
2022-08-31T19:16:22.019Z,59.76
2022-08-31T19:19:24.656Z,59.83
2022-08-31T19:22:27.274Z,59.76
2022-08-31T19:25:32.299Z,60.01
2022-08-31T19:28:34.406Z,59.17
2022-08-31T19:31:38.828Z,59.69
2022-08-31T19:34:43.353Z,60.75
2022-08-31T19:37:45.540Z,60.84
2022-08-31T19:40:47.489Z,61.20
2022-08-31T19:44:01.942Z,59.64
2022-08-31T19:47:24.065Z,60.63
2022-08-31T19:50:26.669Z,61.02
2022-08-31T19:53:29.263Z,61.13
2022-08-31T19:56:31.647Z,61.15
2022-08-31T19:59:34.404Z,61.18
2022-08-31T20:02:37.277Z,61.29
2022-08-31T20:05:43.714Z,61.20
2022-08-31T20:08:47.049Z,61.40
2022-08-31T20:11:50.180Z,61.28
2022-08-31T20:14:52.666Z,61.30
2022-08-31T20:17:57.790Z,61.59
2022-08-31T20:21:03.352Z,61.92
2022-08-31T20:24:08.051Z,61.67
2022-08-31T20:27:10.777Z,60.28
2022-08-31T20:30:13.949Z,61.01
2022-08-31T20:33:16.172Z,61.83
2022-08-31T20:36:26.977Z,62.05
2022-08-31T20:39:31.455Z,62.42
2022-08-31T20:42:33.557Z,62.70
2022-08-31T20:45:35.699Z,62.01
2022-08-31T20:48:56.440Z,62.70
2022-08-31T20:51:59.950Z,62.98
2022-08-31T20:55:05.303Z,63.41
2022-08-31T20:58:07.443Z,63.41
2022-08-31T21:01:10.868Z,63.64
2022-08-31T21:04:14.904Z,64.08
2022-08-31T21:07:18.094Z,64.20
2022-08-31T21:10:36.155Z,63.39
2022-08-31T21:13:38.707Z,64.00
2022-08-31T21:16:41.038Z,63.68
2022-08-31T21:19:44.932Z,63.22
2022-08-31T21:22:47.114Z,63.30
2022-08-31T21:25:49.034Z,63.51
2022-08-31T21:28:52.694Z,64.16
2022-08-31T21:32:01.290Z,63.36
2022-08-31T21:35:05.800Z,62.74
2022-08-31T21:38:12.296Z,62.51
2022-08-31T21:41:14.274Z,62.70
2022-08-31T21:44:18.199Z,63.15
2022-08-31T21:47:20.224Z,64.16
2022-08-31T21:50:22.174Z,63.18
2022-08-31T21:53:26.035Z,63.46
2022-08-31T21:56:30.377Z,64.09
2022-08-31T21:59:35.663Z,63.79
2022-08-31T22:02:37.605Z,64.25
2022-08-31T22:05:41.772Z,64.48
2022-08-31T22:08:43.822Z,65.03
2022-08-31T22:11:50.771Z,65.07
2022-08-31T22:14:53.538Z,65.54
2022-08-31T22:18:15.458Z,65.47
2022-08-31T22:21:24.064Z,65.63
2022-08-31T22:24:30.678Z,66.53
2022-08-31T22:27:33.767Z,65.03
2022-08-31T22:30:36.425Z,66.28
2022-08-31T22:33:39.760Z,65.38
2022-08-31T22:36:53.272Z,66.00
2022-08-31T22:39:55.778Z,65.77
2022-08-31T22:42:58.675Z,65.19
2022-08-31T22:46:00.837Z,65.54
2022-08-31T22:49:03.477Z,65.93
2022-08-31T22:52:05.861Z,64.83
2022-08-31T22:55:08.905Z,65.45
2022-08-31T22:58:12.678Z,66.10
2022-08-31T23:01:23.378Z,66.89
2022-08-31T23:04:27.701Z,65.94
2022-08-31T23:07:29.608Z,66.61
2022-08-31T23:10:32.626Z,66.30
2022-08-31T23:13:55.815Z,67.32
2022-08-31T23:17:01.437Z,67.88
2022-08-31T23:20:06.904Z,67.29
2022-08-31T23:23:09.021Z,68.45
2022-08-31T23:26:11.654Z,67.82
2022-08-31T23:29:15.556Z,68.06
2022-08-31T23:32:20.923Z,67.78
2022-08-31T23:35:23.368Z,66.66
2022-08-31T23:38:27.450Z,67.82
2022-08-31T23:41:30.159Z,68.16
2022-08-31T23:44:33.865Z,66.99
2022-08-31T23:47:37.004Z,66.77
2022-08-31T23:50:38.796Z,66.64
2022-08-31T23:53:40.637Z,65.86
2022-08-31T23:56:45.925Z,65.19
2022-08-31T23:59:52.230Z,65.20
